createdAt,value
2023-03-27T00:00:46.006Z,12.73
2023-03-27T00:06:11.390Z,15.02
2023-03-27T00:11:34.405Z,14.40
2023-03-27T00:17:00.372Z,13.77
2023-03-27T00:22:23.441Z,14.73
2023-03-27T00:27:46.390Z,15.00
2023-03-27T00:33:12.230Z,14.15
2023-03-27T00:38:35.290Z,14.40
2023-03-27T00:43:59.043Z,14.82
2023-03-27T00:49:22.878Z,16.50
2023-03-27T00:54:46.811Z,17.15
2023-03-27T01:00:13.077Z,16.55
2023-03-27T01:05:38.741Z,17.73
2023-03-27T01:11:08.198Z,18.10
2023-03-27T01:16:34.476Z,17.50
2023-03-27T01:22:15.513Z,21.60
2023-03-27T01:27:58.573Z,23.15
2023-03-27T01:33:47.777Z,26.13
2023-03-27T01:39:26.963Z,24.52
2023-03-27T01:50:27.314Z,20.60
2023-03-27T01:55:54.790Z,20.38
2023-03-27T02:01:25.723Z,19.15
2023-03-27T02:06:56.535Z,19.25
2023-03-27T02:12:30.348Z,21.02
2023-03-27T02:17:56.961Z,18.65
2023-03-27T02:23:23.057Z,18.98
2023-03-27T02:29:07.891Z,20.23
2023-03-27T02:34:58.797Z,18.73
2023-03-27T02:40:26.933Z,18.90
2023-03-27T02:46:00.811Z,20.40
2023-03-27T02:51:26.785Z,20.15
2023-03-27T02:56:52.060Z,18.67
2023-03-27T03:02:25.065Z,19.95
2023-03-27T03:07:54.319Z,18.85
2023-03-27T03:13:19.936Z,16.27
2023-03-27T03:18:43.345Z,17.40
2023-03-27T03:24:07.604Z,17.35
2023-03-27T03:29:37.573Z,17.05
2023-03-27T03:35:19.275Z,17.48
2023-03-27T03:40:43.042Z,12.82
2023-03-27T03:46:12.485Z,15.32
2023-03-27T03:51:43.301Z,15.50
2023-03-27T03:57:11.274Z,15.50
2023-03-27T04:02:41.346Z,15.93
2023-03-27T04:08:13.730Z,16.77
2023-03-27T04:14:07.192Z,15.85
2023-03-27T04:19:42.074Z,17.13
2023-03-27T04:25:08.986Z,20.08
2023-03-27T04:30:38.981Z,20.00
2023-03-27T04:36:20.915Z,20.88
2023-03-27T04:41:54.152Z,19.70
2023-03-27T04:47:17.078Z,20.20
2023-03-27T04:52:41.207Z,23.92
2023-03-27T04:58:09.204Z,25.13
2023-03-27T05:03:34.845Z,27.02
2023-03-27T05:09:04.869Z,29.35
2023-03-27T05:14:31.328Z,30.17
2023-03-27T05:19:54.592Z,31.00
2023-03-27T05:25:17.447Z,32.88
2023-03-27T05:30:42.985Z,33.08
2023-03-27T05:36:12.583Z,32.95
2023-03-27T05:41:43.342Z,29.33
2023-03-27T05:47:07.785Z,26.67
2023-03-27T05:52:30.826Z,25.08
2023-03-27T05:57:53.971Z,24.77
2023-03-27T06:03:25.861Z,23.35
2023-03-27T06:08:56.044Z,21.95
2023-03-27T06:14:19.265Z,22.52
2023-03-27T06:20:11.170Z,19.83
2023-03-27T06:25:35.884Z,17.05
2023-03-27T06:30:59.941Z,18.40
2023-03-27T06:36:38.281Z,15.30
2023-03-27T06:42:01.315Z,14.75
2023-03-27T06:47:31.913Z,15.40
2023-03-27T06:58:44.618Z,17.27
2023-03-27T07:04:08.285Z,22.65
2023-03-27T07:09:44.023Z,19.17
2023-03-27T07:15:10.652Z,18.85
2023-03-27T07:20:34.882Z,16.17
2023-03-27T07:26:04.464Z,14.13
2023-03-27T07:31:57.404Z,14.40
2023-03-27T07:37:38.260Z,16.80
2023-03-27T07:43:21.591Z,15.90
2023-03-27T07:48:44.782Z,12.60
2023-03-27T07:54:13.545Z,12.67
2023-03-27T07:59:45.374Z,10.80
2023-03-27T08:05:13.499Z,9.50
2023-03-27T08:10:39.912Z,15.68
2023-03-27T08:16:07.221Z,15.75
2023-03-27T08:21:31.853Z,11.15
2023-03-27T08:26:55.373Z,10.32
2023-03-27T08:32:24.499Z,9.13
2023-03-27T08:37:50.532Z,7.60
2023-03-27T08:43:40.183Z,4.88
2023-03-27T08:49:07.317Z,4.63
2023-03-27T08:54:33.860Z,8.48
2023-03-27T08:59:58.689Z,5.55
2023-03-27T09:05:27.462Z,8.18
2023-03-27T09:10:51.836Z,8.63
2023-03-27T09:16:28.141Z,8.75
2023-03-27T09:21:57.866Z,7.25
2023-03-27T09:27:37.996Z,5.45
2023-03-27T09:33:27.184Z,3.60
2023-03-27T09:38:52.750Z,4.60
2023-03-27T09:44:25.361Z,4.88
2023-03-27T09:49:54.088Z,3.17
2023-03-27T09:55:30.180Z,3.33
2023-03-27T10:01:08.292Z,3.70
2023-03-27T10:06:33.064Z,4.07
2023-03-27T10:12:04.592Z,3.42
2023-03-27T10:17:30.520Z,4.97
2023-03-27T10:23:01.439Z,5.43
2023-03-27T10:28:34.374Z,5.53
2023-03-27T10:34:34.589Z,11.38
2023-03-27T10:40:02.282Z,4.95
2023-03-27T10:45:34.062Z,5.43
2023-03-27T10:51:03.097Z,4.43
2023-03-27T10:57:02.492Z,4.85
2023-03-27T11:02:30.346Z,4.20
2023-03-27T11:07:55.879Z,8.02
2023-03-27T11:13:23.155Z,3.90
2023-03-27T11:18:51.137Z,3.63
2023-03-27T11:24:18.167Z,3.22
2023-03-27T11:29:53.365Z,3.28
2023-03-27T11:35:21.478Z,3.83
2023-03-27T11:40:56.758Z,3.60
2023-03-27T11:46:26.493Z,4.05
2023-03-27T11:52:00.152Z,3.83
2023-03-27T11:57:25.898Z,3.80
2023-03-27T12:03:33.758Z,3.88
2023-03-27T12:09:19.283Z,2.63
2023-03-27T12:15:24.185Z,3.35
2023-03-27T12:20:55.118Z,2.10
2023-03-27T12:26:28.110Z,2.47
2023-03-27T12:32:03.911Z,1.95
2023-03-27T12:37:31.096Z,1.48
2023-03-27T12:43:04.258Z,3.42
2023-03-27T12:48:27.246Z,3.10
2023-03-27T12:53:52.534Z,2.80
2023-03-27T12:59:23.632Z,2.95
2023-03-27T13:05:01.745Z,2.28
2023-03-27T13:10:30.559Z,2.90
2023-03-27T13:16:05.873Z,3.53
2023-03-27T13:21:46.265Z,4.00
2023-03-27T13:27:20.633Z,1.90
2023-03-27T13:33:05.740Z,1.85
2023-03-27T13:38:49.152Z,2.00
2023-03-27T13:44:15.416Z,2.05
2023-03-27T13:49:57.050Z,2.17
2023-03-27T13:55:39.486Z,3.05
2023-03-27T14:01:42.212Z,1.73
2023-03-27T14:07:14.799Z,1.33
2023-03-27T14:12:54.571Z,1.92
2023-03-27T14:18:35.204Z,1.20
2023-03-27T14:24:04.407Z,0.73
2023-03-27T14:29:41.962Z,0.50
2023-03-27T14:35:05.664Z,1.05
2023-03-27T14:40:42.610Z,1.20
2023-03-27T14:46:09.287Z,0.93
2023-03-27T14:51:37.235Z,1.42
2023-03-27T14:57:09.201Z,0.68
2023-03-27T15:02:39.389Z,0.70
2023-03-27T15:08:12.833Z,2.30
2023-03-27T15:13:56.768Z,1.08
2023-03-27T15:19:28.471Z,1.13
2023-03-27T15:24:53.877Z,0.85
2023-03-27T15:30:25.387Z,1.60
2023-03-27T15:35:51.919Z,1.73
2023-03-27T15:41:33.005Z,2.13
2023-03-27T15:46:59.174Z,2.08
2023-03-27T15:52:29.480Z,1.30
2023-03-27T15:57:52.906Z,1.33
2023-03-27T16:03:22.372Z,1.92
2023-03-27T16:08:47.841Z,2.55
2023-03-27T16:14:22.549Z,1.98
2023-03-27T16:19:52.001Z,3.25
2023-03-27T16:25:15.329Z,4.20
2023-03-27T16:30:41.605Z,4.13
2023-03-27T16:36:06.105Z,3.05
2023-03-27T16:41:29.119Z,2.70
2023-03-27T16:46:52.305Z,3.40
2023-03-27T16:52:16.563Z,3.10
2023-03-27T16:57:40.395Z,3.47
2023-03-27T17:03:04.278Z,3.67
2023-03-27T17:08:30.935Z,3.33
2023-03-27T17:13:54.827Z,3.83
2023-03-27T17:19:16.831Z,3.78
2023-03-27T17:24:55.336Z,3.22
2023-03-27T17:30:37.988Z,3.78
2023-03-27T17:36:09.083Z,3.72
2023-03-27T17:41:39.402Z,3.85
2023-03-27T17:47:08.659Z,3.60
2023-03-27T17:52:35.293Z,3.20
2023-03-27T17:58:09.400Z,2.53
2023-03-27T18:03:39.197Z,2.40
2023-03-27T18:09:04.037Z,2.90
2023-03-27T18:19:59.375Z,2.53
2023-03-27T18:25:24.384Z,3.10
2023-03-27T18:30:47.776Z,2.70
2023-03-27T18:36:13.798Z,2.90
2023-03-27T18:41:37.979Z,2.90
2023-03-27T18:47:01.449Z,3.05
2023-03-27T18:52:28.680Z,3.05
2023-03-27T18:57:51.918Z,3.85
2023-03-27T19:03:16.756Z,5.85
2023-03-27T19:08:42.736Z,6.28
2023-03-27T19:14:06.305Z,5.90
2023-03-27T19:19:33.762Z,8.00
2023-03-27T19:25:24.158Z,6.68
2023-03-27T19:30:47.128Z,6.72
2023-03-27T19:36:16.005Z,6.60
2023-03-27T19:41:44.502Z,6.35
2023-03-27T19:47:13.104Z,5.60
2023-03-27T19:52:47.723Z,6.03
2023-03-27T19:58:23.689Z,5.47
2023-03-27T20:03:52.147Z,5.68
2023-03-27T20:09:16.253Z,4.70
2023-03-27T20:14:58.777Z,5.03
2023-03-27T20:20:37.810Z,4.28
2023-03-27T20:26:06.891Z,4.18
2023-03-27T20:31:40.396Z,4.22
2023-03-27T20:37:11.817Z,4.32
2023-03-27T20:43:06.058Z,4.13
2023-03-27T20:48:41.995Z,4.13
2023-03-27T20:54:10.133Z,4.40
2023-03-27T20:59:39.086Z,4.13
2023-03-27T21:05:09.205Z,4.47
2023-03-27T21:10:36.993Z,5.07
2023-03-27T21:16:06.607Z,5.32
2023-03-27T21:21:33.166Z,6.20
2023-03-27T21:26:58.551Z,4.22
2023-03-27T21:32:23.129Z,4.85
2023-03-27T21:37:47.961Z,5.03
2023-03-27T21:43:13.148Z,6.13
2023-03-27T21:48:36.655Z,5.47
2023-03-27T21:54:01.108Z,4.97
2023-03-27T21:59:30.235Z,5.95
2023-03-27T22:04:59.105Z,6.15
2023-03-27T22:10:29.480Z,5.78
2023-03-27T22:15:58.247Z,6.55
2023-03-27T22:21:23.210Z,6.28
2023-03-27T22:26:49.942Z,5.20
2023-03-27T22:32:18.600Z,5.57
2023-03-27T22:37:46.541Z,6.25
2023-03-27T22:43:22.923Z,6.88
2023-03-27T22:48:54.657Z,6.22
2023-03-27T22:54:18.614Z,7.28
2023-03-27T22:59:42.689Z,5.82
2023-03-27T23:05:06.771Z,7.25
2023-03-27T23:10:30.718Z,5.60
2023-03-27T23:15:55.350Z,6.15
2023-03-27T23:21:18.570Z,5.82
2023-03-27T23:26:41.984Z,5.68
2023-03-27T23:32:06.783Z,5.82
2023-03-27T23:37:30.005Z,6.13
2023-03-27T23:42:52.912Z,5.47
2023-03-27T23:48:17.841Z,5.10
2023-03-27T23:53:41.492Z,5.30
2023-03-27T23:59:04.816Z,6.25
